Time;durP1;ratioP1;P1;durP2;ratioP2;P2;SDS_P1;SDS_P2;PMS_P1;PMS_P2;Temp;Humidity;BMP_temperature;BMP_pressure;BME280_temperature;BME280_humidity;BME280_pressure;Samples;Min_cycle;Max_cycle;Signal;HPM_P1;HPM_P2
2022/02/18 00:00:48;;;;;;;4.85;1.55;;;4.20;99.90;;;;;;5085156;28;20097;-58
2022/02/18 00:04:13;;;;;;;7.68;2.65;;;4.20;99.90;;;;;;5086503;28;20530;-56
2022/02/18 00:07:38;;;;;;;10.40;2.25;;;4.20;99.90;;;;;;5070014;28;20047;-58
2022/02/18 00:11:04;;;;;;;8.38;1.75;;;4.20;99.90;;;;;;5077333;28;20146;-58
2022/02/18 00:14:29;;;;;;;7.22;1.80;;;4.40;99.90;;;;;;5082623;28;20526;-58
2022/02/18 00:17:55;;;;;;;9.88;2.10;;;4.60;99.90;;;;;;5062014;28;20033;-58
2022/02/18 00:21:20;;;;;;;9.55;1.80;;;4.60;99.90;;;;;;5043332;28;20088;-56
2022/02/18 00:24:46;;;;;;;10.25;1.85;;;4.70;99.90;;;;;;5047711;28;20701;-57
2022/02/18 00:28:11;;;;;;;9.10;1.50;;;4.60;99.90;;;;;;5064961;28;20060;-60
2022/02/18 00:31:36;;;;;;;12.40;1.75;;;4.60;99.90;;;;;;5074880;28;20077;-59
2022/02/18 00:35:01;;;;;;;5.68;2.08;;;4.60;99.90;;;;;;5069945;28;20051;-59
2022/02/18 00:38:27;;;;;;;6.05;1.70;;;4.70;99.90;;;;;;5080376;28;20044;-58
2022/02/18 00:41:52;;;;;;;12.25;1.70;;;4.70;99.90;;;;;;5080170;28;20111;-59
2022/02/18 00:45:17;;;;;;;6.90;1.48;;;4.70;99.90;;;;;;5086316;28;20101;-58
2022/02/18 00:48:43;;;;;;;4.40;1.02;;;4.70;99.90;;;;;;5079921;28;20048;-58
2022/02/18 00:52:08;;;;;;;7.50;1.50;;;4.70;99.90;;;;;;5068276;28;20047;-58
2022/02/18 00:55:33;;;;;;;5.88;1.30;;;4.70;99.90;;;;;;5076309;28;20102;-57
2022/02/18 00:59:02;;;;;;;7.78;1.60;;;4.50;99.90;;;;;;5076381;28;20044;-60
2022/02/18 01:02:24;;;;;;;6.75;1.10;;;4.50;99.90;;;;;;5080074;28;20090;-58
2022/02/18 01:05:50;;;;;;;3.15;1.15;;;4.50;99.90;;;;;;5076042;28;20495;-60
2022/02/18 01:09:15;;;;;;;11.18;1.65;;;4.50;99.90;;;;;;5076268;28;20051;-58
2022/02/18 01:12:40;;;;;;;6.57;1.23;;;4.40;99.90;;;;;;5069776;28;20076;-58
2022/02/18 01:16:06;;;;;;;5.50;1.27;;;4.40;99.90;;;;;;5076916;28;20039;-57
2022/02/18 01:19:31;;;;;;;5.07;1.10;;;4.50;99.90;;;;;;5078046;28;20104;-58
2022/02/18 01:22:56;;;;;;;9.20;2.28;;;4.60;99.90;;;;;;5067027;28;20499;-58
2022/02/18 01:26:22;;;;;;;9.52;1.73;;;4.70;99.90;;;;;;5065149;28;20090;-58
2022/02/18 01:29:47;;;;;;;5.28;1.35;;;4.60;99.90;;;;;;5081492;28;20035;-59
2022/02/18 01:33:12;;;;;;;7.32;1.30;;;4.50;99.90;;;;;;5048974;28;20041;-58
2022/02/18 01:36:38;;;;;;;3.50;1.35;;;4.30;99.90;;;;;;5049119;28;20071;-58
2022/02/18 01:40:03;;;;;;;9.52;2.05;;;4.30;99.90;;;;;;5068485;28;20396;-58
2022/02/18 01:43:29;;;;;;;12.20;1.42;;;4.30;99.90;;;;;;5078952;28;20131;-57
2022/02/18 01:46:54;;;;;;;15.32;1.92;;;4.30;99.90;;;;;;5077852;28;20048;-59
2022/02/18 01:50:19;;;;;;;8.40;1.38;;;4.20;99.90;;;;;;5066858;28;20039;-56
2022/02/18 01:53:44;;;;;;;6.82;1.30;;;4.10;99.90;;;;;;5077404;28;20032;-59
2022/02/18 01:57:10;;;;;;;4.38;1.45;;;4.10;99.90;;;;;;5087149;28;20416;-58
2022/02/18 02:00:35;;;;;;;6.20;1.45;;;4.10;99.90;;;;;;5072076;28;20037;-58
2022/02/18 02:04:01;;;;;;;10.48;2.10;;;4.00;99.90;;;;;;5079980;28;20074;-58
2022/02/18 02:07:26;;;;;;;9.10;1.55;;;4.00;99.90;;;;;;5085106;28;20048;-56
2022/02/18 02:10:51;;;;;;;5.20;1.10;;;3.90;99.90;;;;;;5062037;28;20098;-58
2022/02/18 02:14:17;;;;;;;8.88;1.88;;;3.80;99.90;;;;;;5075297;28;20059;-58
2022/02/18 02:17:42;;;;;;;10.45;2.28;;;3.70;99.90;;;;;;5069870;28;20036;-57
2022/02/18 02:21:08;;;;;;;8.57;1.60;;;3.70;99.90;;;;;;5067114;28;20032;-58
2022/02/18 02:24:33;;;;;;;8.80;1.48;;;3.60;99.90;;;;;;5082607;28;20055;-58
2022/02/18 02:27:58;;;;;;;14.02;1.77;;;3.60;99.90;;;;;;5069892;28;20454;-59
2022/02/18 02:31:23;;;;;;;13.27;2.35;;;3.50;99.90;;;;;;5082701;28;20036;-58
2022/02/18 02:34:49;;;;;;;12.30;1.98;;;3.60;99.90;;;;;;5082920;28;20419;-58
2022/02/18 02:38:15;;;;;;;5.28;1.20;;;3.70;99.90;;;;;;5048431;28;20029;-56
2022/02/18 02:41:39;;;;;;;14.18;2.03;;;3.70;99.90;;;;;;5082662;28;20491;-56
2022/02/18 02:45:05;;;;;;;7.82;1.25;;;3.70;99.90;;;;;;5071659;28;20029;-59
2022/02/18 02:48:30;;;;;;;14.98;1.70;;;3.60;99.90;;;;;;5088936;28;20059;-59
2022/02/18 02:51:56;;;;;;;5.28;1.33;;;3.60;99.90;;;;;;5081386;28;20040;-56
2022/02/18 02:55:21;;;;;;;6.95;1.60;;;3.60;99.90;;;;;;5069723;28;20043;-58
2022/02/18 02:58:49;;;;;;;6.82;1.63;;;3.60;99.90;;;;;;5084701;28;20574;-58
2022/02/18 03:02:12;;;;;;;9.63;1.10;;;3.60;99.90;;;;;;5079832;28;20085;-57
2022/02/18 03:05:37;;;;;;;10.00;1.92;;;3.60;99.90;;;;;;5072630;28;20086;-58
2022/02/18 03:09:02;;;;;;;7.97;1.30;;;3.50;99.90;;;;;;5088261;28;20048;-59
2022/02/18 03:12:28;;;;;;;11.57;1.40;;;3.50;99.90;;;;;;5080774;28;20032;-57
2022/02/18 03:15:53;;;;;;;5.63;0.93;;;3.50;99.90;;;;;;5064578;28;20040;-59
2022/02/18 03:19:19;;;;;;;11.23;1.77;;;3.40;99.90;;;;;;5078722;28;20034;-59
2022/02/18 03:22:44;;;;;;;5.40;1.05;;;3.30;99.90;;;;;;5079321;28;20040;-58
2022/02/18 03:26:09;;;;;;;9.82;1.40;;;3.20;99.90;;;;;;5065871;28;20057;-57
2022/02/18 03:29:35;;;;;;;2.25;1.20;;;3.30;99.90;;;;;;5083591;28;20032;-58
2022/02/18 03:33:00;;;;;;;9.23;1.33;;;3.20;99.90;;;;;;5051227;28;20036;-58
2022/02/18 03:36:25;;;;;;;11.15;2.05;;;3.20;99.90;;;;;;5086163;28;20514;-59
2022/02/18 03:39:51;;;;;;;5.60;1.20;;;3.20;99.90;;;;;;5078039;28;20034;-57
2022/02/18 03:43:16;;;;;;;8.00;1.45;;;3.20;99.90;;;;;;5065045;28;20040;-57
2022/02/18 03:46:41;;;;;;;15.50;1.98;;;3.10;99.90;;;;;;5085262;28;20066;-58
2022/02/18 03:50:07;;;;;;;7.00;1.33;;;3.10;99.90;;;;;;5070381;28;20036;-58
2022/02/18 03:53:32;;;;;;;6.97;1.27;;;3.00;99.90;;;;;;5079814;28;20395;-58
2022/02/18 03:56:57;;;;;;;6.88;1.30;;;3.00;99.90;;;;;;5085414;28;20112;-56
2022/02/18 04:00:23;;;;;;;8.07;1.55;;;2.90;99.90;;;;;;5068335;28;20044;-56
2022/02/18 04:03:48;;;;;;;3.97;1.05;;;2.90;99.90;;;;;;5079905;28;20040;-57
2022/02/18 04:07:14;;;;;;;6.25;1.35;;;2.80;99.90;;;;;;5087233;28;20044;-57
2022/02/18 04:10:39;;;;;;;7.80;1.10;;;2.80;99.90;;;;;;5071322;28;20668;-62
2022/02/18 04:14:04;;;;;;;7.32;1.00;;;2.80;99.90;;;;;;5079653;28;20028;-58
2022/02/18 04:17:30;;;;;;;7.10;1.10;;;2.80;99.90;;;;;;5079426;28;20039;-58
2022/02/18 04:20:55;;;;;;;4.50;1.25;;;2.70;99.90;;;;;;5068822;28;20056;-58
2022/02/18 04:24:20;;;;;;;7.95;1.70;;;2.70;99.90;;;;;;5084827;28;20063;-57
2022/02/18 04:27:46;;;;;;;14.73;1.58;;;2.70;99.90;;;;;;5075435;28;20472;-58
2022/02/18 04:31:11;;;;;;;8.18;1.40;;;2.70;99.90;;;;;;5080919;28;20048;-53
2022/02/18 04:34:36;;;;;;;7.53;1.33;;;2.70;99.90;;;;;;5054884;28;20388;-52
2022/02/18 04:38:02;;;;;;;5.28;1.17;;;2.80;99.90;;;;;;5050214;28;20036;-50
2022/02/18 04:41:27;;;;;;;10.27;1.17;;;2.60;99.90;;;;;;5085624;28;20110;-51
2022/02/18 04:44:52;;;;;;;5.38;1.30;;;2.60;99.90;;;;;;5056015;28;20480;-52
2022/02/18 04:48:18;;;;;;;6.32;1.17;;;2.60;99.90;;;;;;5079130;28;20138;-52
2022/02/18 04:51:43;;;;;;;5.35;1.20;;;2.60;99.90;;;;;;5084391;28;20411;-56
2022/02/18 04:55:09;;;;;;;5.32;1.50;;;2.60;99.90;;;;;;5082277;28;20032;-55
2022/02/18 04:58:34;;;;;;;8.05;1.63;;;2.60;99.90;;;;;;5065088;28;20044;-55
2022/02/18 05:01:59;;;;;;;9.05;1.67;;;2.60;99.90;;;;;;5083887;28;20036;-53
2022/02/18 05:05:25;;;;;;;8.70;1.40;;;2.50;99.90;;;;;;5084295;28;20068;-55
2022/02/18 05:08:50;;;;;;;8.38;1.30;;;2.50;99.90;;;;;;5071299;28;20040;-51
2022/02/18 05:12:17;;;;;;;8.05;1.42;;;2.60;99.90;;;;;;5085975;28;20776;-52
2022/02/18 05:15:41;;;;;;;7.20;1.50;;;2.50;99.90;;;;;;5078064;28;20128;-52
2022/02/18 05:19:09;;;;;;;6.93;1.40;;;2.50;99.90;;;;;;5075527;28;20580;-53
2022/02/18 05:22:32;;;;;;;5.00;1.60;;;2.40;99.90;;;;;;5074429;28;20032;-53
2022/02/18 05:25:57;;;;;;;7.28;1.55;;;2.30;99.90;;;;;;5086398;28;20101;-53
2022/02/18 05:29:22;;;;;;;4.45;1.08;;;2.30;99.90;;;;;;5079755;28;20047;-52
2022/02/18 05:32:48;;;;;;;12.57;1.77;;;2.40;99.90;;;;;;5076180;28;20028;-55
2022/02/18 05:36:13;;;;;;;8.52;1.33;;;2.40;99.90;;;;;;5049207;28;20512;-55
2022/02/18 05:39:38;;;;;;;9.45;1.08;;;2.40;99.90;;;;;;5084043;28;20039;-55
2022/02/18 05:43:04;;;;;;;11.80;1.70;;;2.30;99.90;;;;;;5074223;28;20038;-55
2022/02/18 05:46:29;;;;;;;8.80;1.75;;;2.30;99.90;;;;;;5052574;28;20697;-54
2022/02/18 05:49:54;;;;;;;3.55;1.15;;;2.20;99.90;;;;;;5049162;28;20044;-51
2022/02/18 05:53:20;;;;;;;7.60;1.50;;;2.20;99.90;;;;;;5083349;28;20032;-51
2022/02/18 05:56:47;;;;;;;4.22;1.33;;;2.10;99.90;;;;;;5056527;28;20039;-53
2022/02/18 06:00:10;;;;;;;4.50;1.15;;;2.10;99.90;;;;;;5066343;28;20071;-51
2022/02/18 06:03:36;;;;;;;6.78;1.40;;;2.10;99.90;;;;;;5067261;28;20377;-54
2022/02/18 06:07:01;;;;;;;7.13;1.02;;;2.10;99.90;;;;;;5076291;28;20144;-56
2022/02/18 06:10:27;;;;;;;7.03;1.45;;;2.20;99.90;;;;;;5077603;28;20040;-54
2022/02/18 06:13:52;;;;;;;7.03;1.23;;;2.30;99.90;;;;;;5068251;28;20116;-54
2022/02/18 06:17:17;;;;;;;3.20;0.90;;;2.40;99.90;;;;;;5084647;28;20108;-56
2022/02/18 06:20:43;;;;;;;7.72;1.17;;;2.40;99.90;;;;;;5087415;28;20398;-55
2022/02/18 06:24:08;;;;;;;7.10;1.50;;;2.40;99.90;;;;;;5065502;28;20048;-53
2022/02/18 06:27:33;;;;;;;6.68;1.25;;;2.60;99.90;;;;;;5087170;28;20391;-56
2022/02/18 06:30:59;;;;;;;4.10;1.60;;;2.70;99.90;;;;;;5073685;28;20102;-56
2022/02/18 06:34:24;;;;;;;10.38;1.73;;;2.90;99.90;;;;;;5082144;28;20040;-51
2022/02/18 06:37:50;;;;;;;8.32;1.45;;;3.00;99.90;;;;;;5079253;28;20519;-53
2022/02/18 06:41:15;;;;;;;4.60;1.23;;;3.20;99.90;;;;;;5073927;28;20048;-52
2022/02/18 06:44:40;;;;;;;6.88;1.60;;;3.40;99.90;;;;;;5065392;28;20049;-52
2022/02/18 06:48:07;;;;;;;5.32;1.27;;;3.50;99.90;;;;;;5086781;28;20471;-55
2022/02/18 06:51:31;;;;;;;5.80;1.48;;;3.50;99.90;;;;;;5080427;28;20032;-54
2022/02/18 06:54:56;;;;;;;6.18;1.20;;;3.50;99.90;;;;;;5089228;28;20028;-51
2022/02/18 06:58:22;;;;;;;6.63;1.52;;;3.50;99.90;;;;;;5071597;28;20032;-53
2022/02/18 07:01:50;;;;;;;6.82;1.73;;;3.60;99.90;;;;;;5080578;28;20028;-52
2022/02/18 07:05:12;;;;;;;8.80;1.88;;;3.70;99.90;;;;;;5085232;28;20178;-52
2022/02/18 07:08:38;;;;;;;7.88;1.90;;;3.90;99.90;;;;;;5069231;28;20409;-54
2022/02/18 07:12:03;;;;;;;5.80;1.65;;;4.80;99.90;;;;;;5080408;28;20036;-56
2022/02/18 07:15:28;;;;;;;9.35;1.77;;;6.60;99.90;;;;;;5085790;28;20074;-52
2022/02/18 07:18:54;;;;;;;6.68;1.50;;;8.00;99.90;;;;;;5067424;28;20045;-57
2022/02/18 07:22:19;;;;;;;7.28;1.50;;;8.70;97.70;;;;;;5088150;28;20373;-56
2022/02/18 07:25:45;;;;;;;5.32;1.67;;;8.90;96.30;;;;;;5087967;28;20084;-57
2022/02/18 07:29:10;;;;;;;6.07;1.80;;;9.50;85.90;;;;;;5069578;28;20044;-55
2022/02/18 07:32:35;;;;;;;5.45;1.70;;;9.90;91.10;;;;;;5078525;28;20035;-56
2022/02/18 07:36:01;;;;;;;6.43;1.40;;;10.00;78.70;;;;;;5076385;28;20090;-56
2022/02/18 07:39:26;;;;;;;7.72;1.77;;;10.30;87.30;;;;;;5081640;28;20044;-56
2022/02/18 07:42:51;;;;;;;8.80;2.45;;;10.60;79.90;;;;;;5075340;28;20025;-57
2022/02/18 07:46:17;;;;;;;6.38;2.08;;;10.70;86.30;;;;;;5050660;28;20044;-53
2022/02/18 07:49:43;;;;;;;7.40;2.45;;;10.70;71.20;;;;;;5085739;28;20125;-54
2022/02/18 07:53:07;;;;;;;10.50;2.72;;;11.60;77.80;;;;;;5077386;28;20235;-57
2022/02/18 07:56:33;;;;;;;6.05;2.25;;;12.20;55.20;;;;;;5050509;28;20041;-57
2022/02/18 07:59:58;;;;;;;8.43;2.67;;;12.80;52.70;;;;;;5085072;28;20065;-56
2022/02/18 08:03:26;;;;;;;7.47;2.05;;;13.40;53.80;;;;;;5070282;28;20036;-57
2022/02/18 08:06:49;;;;;;;6.85;2.28;;;14.50;48.40;;;;;;5075339;28;20383;-57
2022/02/18 08:10:14;;;;;;;8.75;2.72;;;16.00;38.90;;;;;;5079595;28;20036;-58
2022/02/18 08:13:40;;;;;;;6.55;2.60;;;15.30;40.00;;;;;;5068003;28;20044;-55
2022/02/18 08:17:05;;;;;;;11.75;2.47;;;14.50;46.90;;;;;;5076247;28;20147;-56
2022/02/18 08:20:30;;;;;;;8.48;2.50;;;14.20;43.10;;;;;;5084936;28;20392;-57
2022/02/18 08:23:56;;;;;;;6.07;1.85;;;14.00;48.80;;;;;;5068256;28;20086;-56
2022/02/18 08:27:21;;;;;;;6.35;2.20;;;13.70;45.70;;;;;;5079110;28;20035;-54
2022/02/18 08:30:47;;;;;;;5.95;2.20;;;13.40;48.10;;;;;;5080354;28;20020;-54
2022/02/18 08:34:12;;;;;;;6.78;2.58;;;13.20;56.80;;;;;;5070172;28;20029;-57
2022/02/18 08:37:37;;;;;;;5.97;2.50;;;13.10;50.80;;;;;;5050238;28;20091;-54
2022/02/18 08:41:03;;;;;;;8.07;2.25;;;12.50;52.50;;;;;;5074351;28;20542;-57
2022/02/18 08:44:28;;;;;;;6.78;2.70;;;12.40;61.80;;;;;;5073666;28;20118;-56
2022/02/18 08:47:53;;;;;;;9.45;2.40;;;12.30;60.90;;;;;;5081811;28;20643;-54
2022/02/18 08:51:19;;;;;;;8.18;2.83;;;12.60;52.60;;;;;;5049795;28;20112;-55
2022/02/18 08:54:44;;;;;;;6.18;2.38;;;13.10;47.00;;;;;;5085294;28;20047;-58
2022/02/18 08:58:09;;;;;;;10.77;3.15;;;13.90;43.10;;;;;;5076752;28;20419;-57
2022/02/18 09:01:35;;;;;;;9.23;2.63;;;14.50;39.70;;;;;;5049569;28;20032;-54
2022/02/18 09:05:00;;;;;;;8.45;2.67;;;15.10;35.90;;;;;;5083859;28;20039;-56
2022/02/18 09:08:26;;;;;;;6.75;2.40;;;15.90;33.50;;;;;;5063075;28;20028;-58
2022/02/18 09:11:51;;;;;;;4.68;1.95;;;16.10;28.40;;;;;;5078116;28;20039;-55
2022/02/18 09:15:18;;;;;;;6.25;2.00;;;16.70;30.00;;;;;;5085732;28;20091;-54
2022/02/18 09:18:42;;;;;;;6.70;2.00;;;16.90;32.80;;;;;;5065551;28;20056;-57
2022/02/18 09:22:07;;;;;;;3.17;1.67;;;16.70;28.60;;;;;;5077979;28;20547;-57
2022/02/18 09:25:32;;;;;;;7.30;2.42;;;16.40;29.90;;;;;;5077963;28;20156;-55
2022/02/18 09:28:58;;;;;;;9.30;2.88;;;15.60;32.00;;;;;;5063717;28;20043;-57
2022/02/18 09:32:23;;;;;;;8.88;2.40;;;15.00;31.20;;;;;;5085479;28;20036;-57
2022/02/18 09:36:03;;;;;;;5.22;2.38;;;14.40;36.30;;;;;;5048230;28;20052;-56
2022/02/18 09:39:29;;;;;;;6.25;2.53;;;13.80;39.80;;;;;;5080338;28;20044;-57
2022/02/18 09:42:54;;;;;;;5.35;2.25;;;13.40;41.90;;;;;;5050524;28;20099;-52
2022/02/18 09:46:22;;;;;;;7.40;2.65;;;12.90;45.00;;;;;;5048680;28;20473;-56
2022/02/18 09:49:52;;;;;;;5.35;1.80;;;12.30;46.50;;;;;;5066249;28;20025;-57
2022/02/18 09:53:16;;;;;;;9.73;2.15;;;11.70;50.20;;;;;;5068936;28;20045;-58
2022/02/18 09:56:41;;;;;;;6.15;2.00;;;11.50;55.70;;;;;;5082492;28;20090;-53
2022/02/18 10:00:07;;;;;;;7.97;1.80;;;11.30;56.40;;;;;;5077434;28;20039;-55
2022/02/18 10:03:32;;;;;;;7.07;1.77;;;11.20;58.90;;;;;;5066550;28;20036;-55
2022/02/18 10:06:57;;;;;;;7.78;2.28;;;11.10;61.00;;;;;;5077675;28;20396;-57
2022/02/18 10:10:23;;;;;;;5.78;2.45;;;10.90;61.30;;;;;;5083195;28;20040;-55
2022/02/18 10:14:07;;;;;;;5.57;2.00;;;10.70;61.70;;;;;;5068825;28;20419;-55
2022/02/18 10:17:32;;;;;;;9.43;2.25;;;10.50;61.60;;;;;;5047102;28;20132;-54
2022/02/18 10:20:37;;;;;;;5.68;2.20;;;10.50;62.50;;;;;;5073585;28;20054;-56
2022/02/18 10:24:03;;;;;;;9.32;2.35;;;10.60;64.80;;;;;;5062318;28;20407;-57
2022/02/18 10:27:28;;;;;;;8.32;2.33;;;10.80;64.00;;;;;;5084783;28;20036;-56
2022/02/18 10:30:28;;;;;;;8.88;2.20;;;10.80;62.40;;;;;;5069344;28;20035;-59
2022/02/18 10:32:55;;;;;;;8.43;2.10;;;10.80;64.60;;;;;;5064213;28;20040;-60
2022/02/18 10:35:30;;;;;;;7.40;2.55;;;10.90;65.10;;;;;;5068310;28;20503;-60
2022/02/18 10:37:56;;;;;;;5.20;1.65;;;10.80;63.00;;;;;;5064608;28;20024;-60
2022/02/18 10:40:22;;;;;;;6.88;2.40;;;10.70;61.90;;;;;;5068712;28;20031;-61
2022/02/18 10:42:50;;;;;;;8.73;2.10;;;10.70;61.70;;;;;;5071029;28;20028;-60
2022/02/18 10:45:20;;;;;;;7.07;2.55;;;10.70;64.90;;;;;;5087793;28;20507;-61
2022/02/18 10:47:48;;;;;;;8.65;2.22;;;10.50;64.50;;;;;;5061972;28;20028;-60
2022/02/18 10:50:21;;;;;;;7.35;2.17;;;10.50;65.90;;;;;;5068514;28;20130;-61
2022/02/18 10:53:08;;;;;;;6.47;2.47;;;10.50;67.40;;;;;;5062261;28;20024;-60
2022/02/18 10:55:54;;;;;;;9.40;2.10;;;10.60;67.10;;;;;;5068604;28;20028;-61
2022/02/18 10:58:29;;;;;;;5.05;1.48;;;10.70;66.90;;;;;;5058728;28;20417;-60
2022/02/18 11:01:01;;;;;;;7.07;2.35;;;10.80;64.90;;;;;;5047822;28;20021;-61
2022/02/18 11:03:26;;;;;;;12.32;2.10;;;10.70;63.50;;;;;;5059963;28;20519;-60
2022/02/18 11:05:52;;;;;;;5.35;2.10;;;10.60;62.60;;;;;;5091295;28;20032;-60
2022/02/18 11:08:29;;;;;;;8.23;2.10;;;10.50;64.30;;;;;;5070381;28;20071;-60
2022/02/18 11:10:55;;;;;;;5.72;1.65;;;10.30;66.30;;;;;;5091840;28;20027;-61
2022/02/18 11:13:21;;;;;;;8.55;1.80;;;10.20;66.00;;;;;;5070106;28;20029;-60
2022/02/18 11:15:47;;;;;;;8.90;2.50;;;10.00;67.80;;;;;;5091266;28;20097;-60
2022/02/18 11:18:13;;;;;;;9.00;2.20;;;9.90;69.40;;;;;;5070061;28;20028;-61
2022/02/18 11:20:38;;;;;;;7.05;2.03;;;9.70;71.20;;;;;;5091032;28;20086;-61
2022/02/18 11:23:06;;;;;;;4.68;1.95;;;9.70;73.10;;;;;;5070331;28;20043;-61
2022/02/18 11:25:32;;;;;;;5.20;1.50;;;9.60;74.80;;;;;;5091068;28;20040;-61
2022/02/18 11:27:57;;;;;;;8.23;2.38;;;9.60;76.20;;;;;;5080007;28;20035;-61
2022/02/18 11:30:23;;;;;;;8.85;2.00;;;9.50;76.90;;;;;;5071605;28;20384;-61
2022/02/18 11:33:22;;;;;;;5.07;1.67;;;9.40;77.80;;;;;;5088631;28;20545;-60
2022/02/18 11:36:17;;;;;;;10.82;2.30;;;9.40;78.70;;;;;;5051120;28;20045;-60
2022/02/18 11:39:01;;;;;;;7.03;2.90;;;9.30;79.30;;;;;;5065169;28;20027;-60
2022/02/18 11:41:48;;;;;;;8.10;1.48;;;9.30;79.10;;;;;;5051462;28;20396;-59
2022/02/18 11:44:14;;;;;;;;;;;9.30;81.40;;;;;;5069614;28;20032;-61
2022/02/18 11:46:39;;;;;;;10.10;2.20;;;9.20;82.70;;;;;;5090789;28;19907;-60
2022/02/18 11:49:08;;;;;;;7.72;2.00;;;9.20;81.90;;;;;;5069739;28;20062;-60
2022/02/18 11:51:46;;;;;;;4.32;2.17;;;9.20;83.70;;;;;;5090732;28;20073;-61
2022/02/18 11:54:27;;;;;;;8.52;1.85;;;9.10;81.00;;;;;;5069094;28;20518;-61
2022/02/18 11:57:01;;;;;;;3.97;1.10;;;9.00;82.50;;;;;;5049792;28;20036;-61
2022/02/18 11:59:45;;;;;;;3.33;1.10;;;8.80;88.00;;;;;;5091162;28;20016;-60
2022/02/18 12:02:11;;;;;;;5.78;1.55;;;8.60;94.30;;;;;;5072554;28;20085;-61
2022/02/18 12:04:38;;;;;;;4.70;1.30;;;8.50;95.20;;;;;;5091203;28;20095;-60
2022/02/18 12:07:23;;;;;;;3.10;1.23;;;8.40;98.40;;;;;;5071136;28;20032;-61
2022/02/18 12:09:49;;;;;;;4.85;1.30;;;8.30;99.90;;;;;;5090891;28;20059;-60
2022/02/18 12:12:24;;;;;;;2.67;1.30;;;8.20;99.90;;;;;;5072547;28;20056;-60
2022/02/18 12:15:14;;;;;;;2.63;0.93;;;8.10;99.90;;;;;;5089799;28;20031;-60
2022/02/18 12:17:52;;;;;;;5.13;1.20;;;8.00;99.90;;;;;;5062445;28;20098;-60
2022/02/18 12:20:25;;;;;;;4.18;1.00;;;8.00;99.90;;;;;;5070486;28;20029;-60
2022/02/18 12:22:50;;;;;;;6.32;1.95;;;8.00;99.90;;;;;;5068714;28;20105;-60
2022/02/18 12:25:22;;;;;;;5.80;1.30;;;7.80;99.90;;;;;;5072108;28;20024;-60
2022/02/18 12:27:48;;;;;;;2.65;1.55;;;7.80;99.90;;;;;;5076393;28;20438;-60
2022/02/18 12:30:22;;;;;;;7.25;1.88;;;7.70;99.90;;;;;;5070537;28;20104;-60
2022/02/18 12:32:49;;;;;;;5.55;1.42;;;7.60;99.90;;;;;;5087525;28;20074;-61
2022/02/18 12:35:20;;;;;;;5.72;1.55;;;7.50;99.90;;;;;;5070264;28;20031;-60
2022/02/18 12:37:46;;;;;;;6.95;2.30;;;7.50;99.90;;;;;;5063644;28;20539;-60
2022/02/18 12:40:18;;;;;;;5.55;1.63;;;7.30;99.90;;;;;;5070545;28;20033;-60
2022/02/18 12:42:45;;;;;;;2.90;1.67;;;7.30;99.90;;;;;;5070009;28;20051;-60
2022/02/18 12:45:11;;;;;;;8.45;2.90;;;7.30;99.90;;;;;;5089290;28;20483;-60
2022/02/18 12:47:39;;;;;;;6.18;1.95;;;7.30;99.90;;;;;;5074843;28;20272;-61
2022/02/18 12:50:13;;;;;;;4.85;2.15;;;7.40;99.90;;;;;;5090102;28;20043;-60
2022/02/18 12:52:42;;;;;;;6.75;1.90;;;7.40;99.90;;;;;;5074936;28;20526;-61
2022/02/18 12:55:10;;;;;;;7.07;2.42;;;7.30;99.90;;;;;;5089954;28;20036;-60
2022/02/18 12:57:37;;;;;;;6.50;2.17;;;7.40;99.90;;;;;;5074064;28;20384;-61
2022/02/18 13:00:07;;;;;;;8.05;1.58;;;7.50;99.90;;;;;;5089813;28;20028;-60
2022/02/18 13:02:51;;;;;;;11.65;1.70;;;7.50;99.90;;;;;;5073627;28;20072;-60
2022/02/18 13:05:24;;;;;;;6.68;2.42;;;7.50;99.90;;;;;;5049458;28;20053;-60
2022/02/18 13:07:55;;;;;;;6.53;1.50;;;7.60;99.90;;;;;;5064253;28;20031;-61
2022/02/18 13:10:36;;;;;;;8.30;2.03;;;7.60;99.90;;;;;;5069407;28;20064;-60
2022/02/18 13:13:16;;;;;;;5.75;1.60;;;7.60;99.90;;;;;;5067389;28;20516;-61
2022/02/18 13:15:43;;;;;;;7.78;2.20;;;7.50;99.90;;;;;;5049093;28;20098;-60
2022/02/18 13:18:10;;;;;;;6.80;2.42;;;7.50;99.90;;;;;;5074868;28;20111;-60
2022/02/18 13:20:40;;;;;;;2.65;1.55;;;7.50;99.90;;;;;;5089052;28;20024;-60
2022/02/18 13:23:49;;;;;;;4.60;1.52;;;7.50;99.90;;;;;;5078779;28;20577;-60
2022/02/18 13:27:14;;;;;;;9.82;2.38;;;7.50;99.90;;;;;;5087599;28;20040;-61
2022/02/18 13:30:40;;;;;;;5.18;1.75;;;7.50;99.90;;;;;;5085758;28;20477;-60
2022/02/18 13:34:11;;;;;;;6.38;1.60;;;7.50;99.90;;;;;;5061990;28;20036;-61
2022/02/18 13:37:36;;;;;;;5.40;1.27;;;7.40;99.90;;;;;;5076104;28;20055;-60
2022/02/18 13:41:02;;;;;;;5.90;1.52;;;7.40;99.90;;;;;;5069615;28;20085;-61
2022/02/18 13:44:27;;;;;;;5.22;1.70;;;7.20;99.90;;;;;;5062043;28;20047;-60
2022/02/18 13:47:52;;;;;;;5.50;1.85;;;7.20;99.90;;;;;;5075890;28;20028;-60
2022/02/18 13:51:18;;;;;;;6.35;2.00;;;7.00;99.90;;;;;;5077060;28;20040;-60
2022/02/18 13:54:49;;;;;;;13.13;2.63;;;6.90;99.90;;;;;;5083205;28;20502;-60
2022/02/18 13:58:14;;;;;;;8.77;2.25;;;6.90;99.90;;;;;;5077683;28;20040;-60
2022/02/18 14:01:40;;;;;;;6.38;2.03;;;6.80;99.90;;;;;;5061862;28;20040;-60
2022/02/18 14:05:05;;;;;;;17.67;4.15;;;6.70;99.90;;;;;;5083428;28;20438;-60
2022/02/18 14:08:32;;;;;;;13.30;4.47;;;6.60;99.90;;;;;;5070376;28;20043;-60
2022/02/18 14:11:56;;;;;;;16.08;2.85;;;6.50;99.90;;;;;;5079145;28;20503;-60
2022/02/18 14:15:21;;;;;;;16.92;4.07;;;6.30;99.90;;;;;;5059715;28;20037;-59
2022/02/18 14:18:46;;;;;;;14.55;3.67;;;6.30;99.90;;;;;;5075880;28;20223;-61
2022/02/18 14:22:15;;;;;;;21.27;3.78;;;6.20;99.90;;;;;;5069028;28;20067;-60
2022/02/18 14:25:46;;;;;;;10.95;3.13;;;6.10;99.90;;;;;;5066128;28;20416;-60
2022/02/18 14:29:11;;;;;;;11.07;3.38;;;6.00;99.90;;;;;;5077719;28;20040;-60
2022/02/18 14:32:43;;;;;;;17.45;4.22;;;6.00;99.90;;;;;;5046555;28;20045;-60
2022/02/18 14:36:09;;;;;;;15.43;3.65;;;6.00;99.90;;;;;;5082510;28;20043;-60
2022/02/18 14:39:37;;;;;;;14.43;3.47;;;6.00;99.90;;;;;;5060490;28;20051;-60
2022/02/18 14:43:02;;;;;;;17.92;3.88;;;6.00;99.90;;;;;;5075439;28;20028;-60
2022/02/18 14:46:28;;;;;;;15.20;3.58;;;6.00;99.90;;;;;;5075524;28;20041;-60
2022/02/18 14:49:53;;;;;;;14.55;3.63;;;5.90;99.90;;;;;;5071976;28;20042;-60
2022/02/18 14:53:18;;;;;;;16.48;3.85;;;5.90;99.90;;;;;;5079015;28;20032;-60
2022/02/18 14:56:44;;;;;;;9.82;2.78;;;5.90;99.90;;;;;;5086624;28;20087;-60
2022/02/18 15:00:09;;;;;;;11.90;2.97;;;5.90;99.90;;;;;;5070747;28;20091;-60
2022/02/18 15:03:36;;;;;;;18.13;3.47;;;5.90;99.90;;;;;;5078339;28;20043;-60
2022/02/18 15:07:00;;;;;;;14.52;3.60;;;6.00;99.90;;;;;;5083962;28;20115;-60
2022/02/18 15:10:28;;;;;;;13.52;3.83;;;6.00;99.90;;;;;;5077559;28;20043;-60
2022/02/18 15:13:51;;;;;;;24.80;4.15;;;6.00;99.90;;;;;;5075694;28;20395;-60
2022/02/18 15:17:16;;;;;;;13.82;3.40;;;6.00;99.90;;;;;;5072311;28;20044;-60
2022/02/18 15:20:41;;;;;;;8.70;3.30;;;6.00;99.90;;;;;;5084737;28;20052;-60
2022/02/18 15:24:07;;;;;;;13.30;3.80;;;6.10;99.90;;;;;;5081707;28;20070;-60
2022/02/18 15:27:32;;;;;;;14.65;3.78;;;6.10;99.90;;;;;;5059519;28;20036;-60
2022/02/18 15:37:38;;;;;;;13.25;3.67;;;6.10;99.90;;;;;;5049118;28;20105;-60
2022/02/18 15:44:28;;;;;;;18.33;3.47;;;6.20;99.90;;;;;;5081520;28;20173;-60
2022/02/18 15:47:53;;;;;;;20.30;3.50;;;6.20;99.90;;;;;;5077992;28;20036;-60
2022/02/18 15:51:18;;;;;;;17.05;4.25;;;6.20;99.90;;;;;;5076670;28;20536;-60
2022/02/18 15:54:44;;;;;;;15.15;3.72;;;6.30;99.90;;;;;;5083318;28;20063;-60
2022/02/18 15:58:09;;;;;;;9.10;3.38;;;6.30;99.90;;;;;;5077913;28;20086;-60
2022/02/18 16:01:35;;;;;;;14.20;4.13;;;6.30;99.90;;;;;;5077789;28;20393;-60
2022/02/18 16:05:00;;;;;;;14.32;3.60;;;6.30;99.90;;;;;;5064141;28;20122;-60
2022/02/18 16:08:26;;;;;;;9.57;3.95;;;6.40;99.90;;;;;;5077524;28;20052;-59
2022/02/18 16:11:51;;;;;;;8.27;3.35;;;6.50;99.90;;;;;;5083007;28;20105;-60
2022/02/18 16:15:16;;;;;;;10.30;3.70;;;6.50;99.90;;;;;;5073235;28;20060;-60
2022/02/18 16:18:41;;;;;;;11.18;3.45;;;6.50;99.90;;;;;;5070278;28;20675;-60
2022/02/18 16:22:07;;;;;;;13.73;3.50;;;6.50;99.90;;;;;;5085428;28;20048;-60
2022/02/18 16:25:32;;;;;;;14.15;4.00;;;6.60;99.90;;;;;;5080072;28;20051;-59
2022/02/18 16:28:57;;;;;;;9.40;3.67;;;6.60;99.90;;;;;;5082323;28;20419;-60
2022/02/18 16:31:43;;;;;;;13.80;4.45;;;6.60;99.90;;;;;;5047117;28;20126;-59
2022/02/18 16:34:08;;;;;;;17.50;4.72;;;6.70;99.90;;;;;;5070477;28;20166;-60
2022/02/18 16:36:34;;;;;;;11.18;5.00;;;6.60;99.90;;;;;;5087109;28;20036;-60
2022/02/18 16:39:00;;;;;;;9.23;4.00;;;6.70;99.90;;;;;;5076297;28;20484;-60
2022/02/18 16:42:06;;;;;;;12.38;4.65;;;6.70;99.90;;;;;;5068441;28;20029;-60
2022/02/18 16:45:31;;;;;;;18.70;5.30;;;6.70;99.90;;;;;;5082255;28;20047;-61
2022/02/18 16:48:56;;;;;;;15.55;4.60;;;6.70;99.90;;;;;;5076676;28;20503;-60
2022/02/18 16:52:22;;;;;;;16.50;5.28;;;6.70;99.90;;;;;;5068748;28;20086;-60
2022/02/18 16:55:47;;;;;;;15.35;5.05;;;6.70;99.90;;;;;;5082921;28;20044;-60
2022/02/18 16:59:13;;;;;;;11.30;4.40;;;6.80;99.90;;;;;;5084399;28;20397;-61
2022/02/18 17:02:38;;;;;;;10.43;4.20;;;6.80;99.90;;;;;;5049154;28;20041;-60